createdAt,value
2022-12-20T00:01:27.116Z,35.25
2022-12-20T00:03:56.193Z,28.05
2022-12-20T00:06:24.602Z,31.08
2022-12-20T00:08:56.176Z,30.52
2022-12-20T00:11:23.307Z,30.60
2022-12-20T00:13:50.261Z,36.13
2022-12-20T00:16:20.666Z,30.70
2022-12-20T00:18:51.095Z,33.05
2022-12-20T00:21:18.016Z,30.65
2022-12-20T00:23:44.892Z,36.05
2022-12-20T00:26:14.770Z,34.65
2022-12-20T00:28:42.869Z,30.05
2022-12-20T00:31:11.299Z,28.85
2022-12-20T00:33:39.768Z,33.95
2022-12-20T00:36:08.168Z,38.78
2022-12-20T00:38:35.364Z,30.63
2022-12-20T00:41:07.163Z,35.13
2022-12-20T00:43:34.541Z,34.65
2022-12-20T00:46:01.974Z,33.42
2022-12-20T00:48:29.994Z,33.97
2022-12-20T00:51:09.780Z,38.03
2022-12-20T00:53:37.448Z,35.43
2022-12-20T00:56:05.586Z,34.97
2022-12-20T00:58:34.194Z,32.45
2022-12-20T01:01:01.260Z,36.30
2022-12-20T01:03:29.004Z,32.28
2022-12-20T01:06:03.094Z,35.63
2022-12-20T01:08:31.269Z,36.17
2022-12-20T01:11:12.455Z,30.05
2022-12-20T01:13:41.915Z,31.67
2022-12-20T01:16:15.665Z,36.00
2022-12-20T01:18:42.663Z,25.80
2022-12-20T01:21:12.915Z,37.17
2022-12-20T01:23:41.024Z,32.45
2022-12-20T01:26:11.954Z,30.95
2022-12-20T01:28:40.782Z,31.25
2022-12-20T01:31:08.973Z,30.35
2022-12-20T01:33:36.552Z,37.60
2022-12-20T01:36:10.859Z,30.10
2022-12-20T01:38:37.811Z,32.97
2022-12-20T01:41:06.762Z,33.50
2022-12-20T01:43:52.660Z,32.85
2022-12-20T01:46:26.105Z,31.23
2022-12-20T01:48:59.386Z,30.60
2022-12-20T01:51:28.284Z,33.40
2022-12-20T01:54:01.949Z,31.42
2022-12-20T01:56:28.852Z,38.47
2022-12-20T01:58:57.064Z,34.90
2022-12-20T02:01:25.310Z,34.53
2022-12-20T02:03:54.258Z,33.38
2022-12-20T02:06:24.325Z,32.10
2022-12-20T02:08:55.604Z,31.30
2022-12-20T02:11:31.611Z,33.78
2022-12-20T02:14:18.355Z,34.28
2022-12-20T02:17:03.281Z,33.10
2022-12-20T02:19:48.904Z,36.55
2022-12-20T02:22:34.396Z,34.00
2022-12-20T02:25:32.082Z,39.00
2022-12-20T02:28:11.035Z,35.03
2022-12-20T02:30:42.100Z,36.08
2022-12-20T02:33:14.391Z,36.03
2022-12-20T02:35:42.106Z,36.78
2022-12-20T02:38:36.849Z,36.60
2022-12-20T02:41:15.436Z,37.97
2022-12-20T02:44:02.636Z,34.65
2022-12-20T02:46:30.503Z,32.83
2022-12-20T02:49:03.185Z,39.35
2022-12-20T02:51:32.392Z,38.85
2022-12-20T02:54:00.460Z,33.45
2022-12-20T02:56:43.429Z,36.30
2022-12-20T02:59:30.387Z,42.22
2022-12-20T03:01:57.663Z,38.03
2022-12-20T03:04:28.682Z,35.17
2022-12-20T03:07:10.687Z,45.05
2022-12-20T03:09:40.815Z,39.92
2022-12-20T03:12:09.033Z,36.00
2022-12-20T03:14:36.022Z,40.03
2022-12-20T03:17:02.993Z,38.90
2022-12-20T03:19:30.265Z,37.65
2022-12-20T03:21:57.688Z,39.08
2022-12-20T03:24:25.015Z,36.95
2022-12-20T03:26:52.279Z,37.20
2022-12-20T03:29:19.138Z,42.13
2022-12-20T03:31:46.036Z,35.30
2022-12-20T03:34:12.904Z,37.17
2022-12-20T03:36:39.790Z,39.15
2022-12-20T03:39:06.684Z,40.17
2022-12-20T03:41:33.604Z,36.63
2022-12-20T03:44:00.587Z,38.15
2022-12-20T03:46:28.114Z,41.42
2022-12-20T03:48:55.146Z,38.88
2022-12-20T03:51:22.069Z,40.90
2022-12-20T03:53:48.991Z,42.10
2022-12-20T03:56:15.948Z,42.35
2022-12-20T03:58:42.816Z,39.67
2022-12-20T04:01:25.945Z,41.35
2022-12-20T04:03:53.348Z,43.78
2022-12-20T04:06:20.827Z,38.33
2022-12-20T04:08:47.752Z,46.70
2022-12-20T04:11:17.812Z,48.55
2022-12-20T04:13:47.168Z,42.65
2022-12-20T04:16:19.715Z,43.25
2022-12-20T04:18:46.978Z,45.75
2022-12-20T04:21:15.059Z,48.72
2022-12-20T04:23:43.342Z,43.50
2022-12-20T04:26:11.086Z,46.75
2022-12-20T04:28:37.986Z,41.78
2022-12-20T04:31:05.502Z,47.17
2022-12-20T04:33:32.612Z,46.17
2022-12-20T04:35:59.531Z,48.13
2022-12-20T04:38:26.573Z,50.35
2022-12-20T04:40:55.064Z,52.72
2022-12-20T04:43:23.305Z,54.38
2022-12-20T04:45:53.049Z,51.63
2022-12-20T04:48:55.107Z,56.23
2022-12-20T04:51:07.402Z,50.85
2022-12-20T04:53:49.349Z,49.28
2022-12-20T04:56:24.592Z,47.75
2022-12-20T04:58:53.259Z,53.05
2022-12-20T05:01:20.507Z,52.50
2022-12-20T05:03:48.215Z,55.92
2022-12-20T05:06:15.958Z,57.70
2022-12-20T05:08:43.350Z,51.67
2022-12-20T05:11:10.792Z,57.45
2022-12-20T05:13:37.789Z,61.70
2022-12-20T05:16:05.147Z,58.85
2022-12-20T05:18:32.299Z,60.20
2022-12-20T05:21:20.195Z,58.20
2022-12-20T05:24:26.647Z,52.25
2022-12-20T05:26:53.565Z,53.63
2022-12-20T05:29:20.613Z,56.22
2022-12-20T05:31:47.746Z,62.15
2022-12-20T05:34:14.900Z,64.38
2022-12-20T05:36:41.868Z,57.92
2022-12-20T05:39:08.952Z,64.80
2022-12-20T05:41:35.809Z,65.93
2022-12-20T05:44:02.708Z,61.17
2022-12-20T05:46:29.625Z,62.75
2022-12-20T05:48:56.594Z,60.25
2022-12-20T05:51:23.502Z,66.55
2022-12-20T05:53:50.815Z,64.18
2022-12-20T05:56:17.786Z,63.38
2022-12-20T05:58:44.795Z,66.97
2022-12-20T06:01:11.692Z,65.35
2022-12-20T06:03:40.465Z,63.00
2022-12-20T06:06:14.033Z,59.35
2022-12-20T06:08:42.237Z,62.58
2022-12-20T06:11:09.195Z,61.17
2022-12-20T06:13:36.207Z,61.58
2022-12-20T06:16:03.255Z,68.25
2022-12-20T06:18:30.191Z,63.47
2022-12-20T06:20:57.063Z,61.55
2022-12-20T06:23:24.229Z,60.17
2022-12-20T06:25:51.530Z,69.05
2022-12-20T06:28:22.026Z,59.42
2022-12-20T06:30:57.207Z,61.35
2022-12-20T06:33:25.260Z,72.13
2022-12-20T06:35:52.603Z,66.53
2022-12-20T06:38:19.621Z,65.00
2022-12-20T06:40:46.537Z,63.63
2022-12-20T06:43:13.525Z,69.45
2022-12-20T06:45:42.559Z,62.13
2022-12-20T06:48:10.290Z,68.00
2022-12-20T06:50:38.645Z,66.57
2022-12-20T06:53:05.518Z,61.08
2022-12-20T06:55:32.672Z,61.47
2022-12-20T06:57:59.563Z,60.47
2022-12-20T07:00:27.535Z,61.00
2022-12-20T07:02:54.872Z,59.63
2022-12-20T07:05:22.071Z,68.38
2022-12-20T07:07:49.050Z,67.28
2022-12-20T07:10:16.027Z,69.30
2022-12-20T07:12:47.747Z,63.10
2022-12-20T07:15:15.727Z,65.65
2022-12-20T07:17:42.620Z,62.78
2022-12-20T07:20:13.579Z,67.15
2022-12-20T07:25:08.338Z,56.00
2022-12-20T07:27:35.205Z,70.47
2022-12-20T07:30:02.225Z,58.58
2022-12-20T07:32:29.899Z,67.40
2022-12-20T07:34:56.783Z,69.05
2022-12-20T07:37:23.673Z,63.53
2022-12-20T07:39:50.671Z,65.97
2022-12-20T07:42:17.543Z,67.45
2022-12-20T07:44:44.396Z,73.03
2022-12-20T07:47:11.348Z,72.97
2022-12-20T07:49:38.307Z,62.40
2022-12-20T07:52:06.616Z,67.50
2022-12-20T07:54:38.219Z,69.65
2022-12-20T07:57:12.545Z,66.65
2022-12-20T07:59:47.400Z,68.07
2022-12-20T08:02:20.710Z,68.10
2022-12-20T08:04:48.417Z,66.50
2022-12-20T08:07:15.400Z,68.78
2022-12-20T08:09:44.531Z,70.97
2022-12-20T08:12:14.172Z,66.82
2022-12-20T08:14:41.389Z,67.75
2022-12-20T08:17:08.387Z,67.93
2022-12-20T08:19:35.282Z,69.88
2022-12-20T08:22:02.665Z,69.00
2022-12-20T08:24:29.692Z,72.95
2022-12-20T08:26:56.609Z,68.20
2022-12-20T08:29:23.465Z,72.85
2022-12-20T08:31:50.966Z,66.32
2022-12-20T08:34:18.626Z,70.57
2022-12-20T08:36:45.721Z,75.07
2022-12-20T08:39:12.641Z,71.45
2022-12-20T08:41:39.624Z,69.65
2022-12-20T08:44:06.899Z,71.78
2022-12-20T08:46:37.300Z,72.60
2022-12-20T08:49:05.383Z,76.57
2022-12-20T08:51:32.309Z,78.03
2022-12-20T08:54:00.047Z,72.20
2022-12-20T08:56:26.937Z,79.15
2022-12-20T08:58:53.820Z,72.25
2022-12-20T09:01:22.991Z,70.97
2022-12-20T09:03:50.167Z,67.78
2022-12-20T09:06:20.276Z,80.05
2022-12-20T09:08:47.979Z,70.70
2022-12-20T09:11:23.128Z,76.97
2022-12-20T09:13:52.734Z,74.38
2022-12-20T09:16:22.554Z,68.72
2022-12-20T09:18:59.199Z,52.95
2022-12-20T09:21:29.604Z,71.03
2022-12-20T09:23:57.258Z,70.75
2022-12-20T09:26:24.923Z,62.40
2022-12-20T09:28:52.472Z,65.35
2022-12-20T09:31:22.217Z,65.10
2022-12-20T09:33:49.202Z,64.10
2022-12-20T09:36:19.248Z,67.68
2022-12-20T09:38:47.115Z,66.97
2022-12-20T09:41:34.415Z,74.70
2022-12-20T09:44:34.136Z,64.85
2022-12-20T09:47:15.748Z,61.67
2022-12-20T09:49:46.967Z,75.13
2022-12-20T09:52:24.216Z,74.70
2022-12-20T09:55:12.258Z,69.93
2022-12-20T09:57:43.139Z,72.85
2022-12-20T10:03:01.993Z,70.20
2022-12-20T10:05:47.182Z,69.45
2022-12-20T10:08:20.841Z,65.77
2022-12-20T10:11:19.459Z,67.05
2022-12-20T10:14:09.313Z,72.30
2022-12-20T10:16:50.849Z,72.10
2022-12-20T10:19:23.464Z,72.75
2022-12-20T10:22:03.678Z,66.20
2022-12-20T10:24:35.739Z,72.78
2022-12-20T10:27:17.546Z,72.00
2022-12-20T10:29:45.273Z,67.00
2022-12-20T10:32:20.121Z,65.15
2022-12-20T10:35:16.917Z,70.22
2022-12-20T10:38:07.488Z,67.80
2022-12-20T10:41:19.949Z,65.95
2022-12-20T10:43:44.258Z,69.47
2022-12-20T10:46:13.432Z,63.20
2022-12-20T10:48:42.764Z,61.22
2022-12-20T10:51:16.503Z,65.60
2022-12-20T10:53:55.735Z,55.92
2022-12-20T10:56:30.050Z,59.97
2022-12-20T10:59:03.122Z,61.17
2022-12-20T11:01:34.306Z,62.38
2022-12-20T11:04:07.596Z,61.47
2022-12-20T11:06:37.550Z,62.17
2022-12-20T11:09:27.748Z,65.95
2022-12-20T11:12:02.218Z,63.23
2022-12-20T11:14:38.055Z,63.85
2022-12-20T11:17:14.907Z,55.47
2022-12-20T11:20:05.392Z,56.90
2022-12-20T11:22:54.054Z,55.10
2022-12-20T11:25:44.000Z,58.75
2022-12-20T11:28:34.475Z,61.75
2022-12-20T11:31:19.945Z,58.28
2022-12-20T11:34:04.674Z,66.43
2022-12-20T11:36:43.309Z,61.38
2022-12-20T11:39:11.107Z,62.90
2022-12-20T11:41:58.042Z,63.25
2022-12-20T11:44:57.990Z,63.53
2022-12-20T11:47:58.655Z,60.15
2022-12-20T11:51:13.558Z,59.40
2022-12-20T11:54:08.751Z,54.47
2022-12-20T11:56:47.209Z,57.00
2022-12-20T11:59:28.182Z,56.78
2022-12-20T12:04:36.262Z,54.65
2022-12-20T12:07:10.175Z,60.58
2022-12-20T12:09:57.478Z,48.95
2022-12-20T12:12:44.753Z,48.28
2022-12-20T12:15:32.009Z,49.75
2022-12-20T12:18:11.401Z,57.08
2022-12-20T12:20:52.003Z,47.53
2022-12-20T12:23:24.460Z,52.10
2022-12-20T12:25:51.524Z,50.15
2022-12-20T12:28:20.739Z,51.67
2022-12-20T12:31:14.106Z,47.92
2022-12-20T12:33:51.408Z,47.83
2022-12-20T12:36:47.508Z,43.83
2022-12-20T12:39:44.985Z,41.42
2022-12-20T12:42:28.367Z,43.42
2022-12-20T12:44:59.509Z,41.85
2022-12-20T12:47:39.144Z,42.60
2022-12-20T12:50:15.492Z,44.92
2022-12-20T12:52:54.482Z,41.42
2022-12-20T12:55:41.398Z,39.38
2022-12-20T12:58:23.507Z,42.55
2022-12-20T13:00:55.883Z,43.45
2022-12-20T13:03:52.954Z,42.83
2022-12-20T13:06:25.835Z,41.03
2022-12-20T13:08:58.877Z,38.70
2022-12-20T13:11:46.517Z,40.95
2022-12-20T13:14:24.093Z,38.38
2022-12-20T13:17:12.039Z,42.63
2022-12-20T13:19:50.842Z,36.65
2022-12-20T13:22:17.717Z,41.55
2022-12-20T13:25:00.454Z,36.83
2022-12-20T13:27:42.088Z,39.80
2022-12-20T13:30:12.085Z,37.97
2022-12-20T13:32:48.220Z,43.40
2022-12-20T13:35:28.052Z,40.63
2022-12-20T13:38:22.649Z,39.05
2022-12-20T13:40:56.429Z,38.75
2022-12-20T13:43:23.231Z,36.97
2022-12-20T13:46:08.925Z,39.15
2022-12-20T13:48:38.549Z,44.13
2022-12-20T13:51:08.112Z,37.35
2022-12-20T13:53:35.898Z,35.53
2022-12-20T13:56:29.714Z,35.10
2022-12-20T13:58:59.675Z,37.63
2022-12-20T14:01:27.143Z,47.03
2022-12-20T14:03:54.594Z,34.65
2022-12-20T14:06:27.258Z,38.22
2022-12-20T14:08:54.512Z,34.25
2022-12-20T14:11:30.242Z,41.83
2022-12-20T14:14:02.337Z,39.50
2022-12-20T14:16:32.048Z,38.78
2022-12-20T14:19:07.838Z,42.55
2022-12-20T14:21:39.794Z,48.80
2022-12-20T14:24:15.967Z,39.60
2022-12-20T14:26:48.214Z,40.80
2022-12-20T14:29:23.169Z,46.70
2022-12-20T14:31:50.827Z,46.80
2022-12-20T14:34:29.538Z,46.42
2022-12-20T14:37:36.239Z,44.28
2022-12-20T14:40:12.597Z,46.22
2022-12-20T14:42:40.766Z,51.95
2022-12-20T14:45:10.407Z,49.20
2022-12-20T14:47:38.623Z,51.47
2022-12-20T14:50:17.994Z,54.40
2022-12-20T14:52:45.827Z,49.58
2022-12-20T14:55:20.650Z,51.20
2022-12-20T14:57:51.849Z,59.67
2022-12-20T15:00:18.804Z,60.15
2022-12-20T15:03:01.214Z,64.47
2022-12-20T15:05:35.217Z,54.90
2022-12-20T15:08:32.843Z,60.72
2022-12-20T15:11:08.917Z,61.55
2022-12-20T15:13:38.249Z,67.50
2022-12-20T15:16:13.973Z,69.32
2022-12-20T15:18:41.070Z,76.03
2022-12-20T15:21:42.788Z,71.88
2022-12-20T15:24:22.027Z,78.07
2022-12-20T15:26:50.099Z,80.70
2022-12-20T15:29:26.499Z,80.15
2022-12-20T15:32:14.669Z,76.07
2022-12-20T15:34:41.789Z,77.70
2022-12-20T15:37:18.331Z,79.82
2022-12-20T15:39:46.135Z,88.72
2022-12-20T15:42:20.702Z,89.13
2022-12-20T15:44:47.850Z,94.43
2022-12-20T15:47:16.145Z,83.65
2022-12-20T15:49:49.454Z,81.47
2022-12-20T15:52:20.784Z,97.53
2022-12-20T15:54:47.655Z,111.15
2022-12-20T15:57:15.433Z,92.90
2022-12-20T16:00:00.323Z,114.22
2022-12-20T16:02:31.073Z,92.90
2022-12-20T16:05:00.075Z,108.03
2022-12-20T16:07:27.334Z,104.32
2022-12-20T16:09:54.341Z,94.47
2022-12-20T16:12:28.588Z,109.70
2022-12-20T16:14:55.639Z,98.68
2022-12-20T16:17:25.014Z,100.47
2022-12-20T16:19:51.880Z,115.45
2022-12-20T16:22:23.594Z,112.03
2022-12-20T16:24:50.601Z,91.15
2022-12-20T16:27:17.685Z,105.97
2022-12-20T16:29:45.536Z,101.63
2022-12-20T16:32:22.143Z,101.90
2022-12-20T16:34:50.218Z,116.68
2022-12-20T16:37:17.487Z,108.13
2022-12-20T16:39:44.373Z,111.22
2022-12-20T16:42:16.222Z,102.57
2022-12-20T16:44:45.293Z,109.82
2022-12-20T16:47:13.971Z,114.05
2022-12-20T16:49:47.333Z,111.22
2022-12-20T16:52:18.988Z,130.43
2022-12-20T16:54:45.946Z,133.65
2022-12-20T16:57:12.867Z,135.77
2022-12-20T16:59:39.735Z,136.73
2022-12-20T17:02:26.059Z,121.63
2022-12-20T17:04:53.333Z,109.93
2022-12-20T17:07:20.648Z,117.45
2022-12-20T17:09:47.612Z,115.55
2022-12-20T17:12:16.966Z,116.03
2022-12-20T17:14:46.386Z,136.90
2022-12-20T17:17:13.977Z,110.78
2022-12-20T17:19:41.257Z,109.10
2022-12-20T17:22:24.528Z,121.32
2022-12-20T17:24:51.718Z,125.93
2022-12-20T17:27:19.082Z,121.20
2022-12-20T17:29:46.058Z,119.38
2022-12-20T17:32:23.889Z,113.55
2022-12-20T17:34:51.244Z,117.72
2022-12-20T17:37:18.291Z,121.65
2022-12-20T17:39:45.566Z,114.43
2022-12-20T17:42:14.027Z,111.28
2022-12-20T17:44:40.959Z,103.47
2022-12-20T17:47:07.963Z,109.60
2022-12-20T17:49:34.842Z,128.32
2022-12-20T17:52:01.695Z,113.97
2022-12-20T17:54:33.558Z,124.82
2022-12-20T17:57:01.934Z,125.07
2022-12-20T17:59:29.562Z,128.73
2022-12-20T18:01:56.792Z,129.50
2022-12-20T18:04:23.902Z,130.40
2022-12-20T18:06:50.810Z,127.30
2022-12-20T18:09:19.684Z,112.65
2022-12-20T18:11:46.991Z,121.45
2022-12-20T18:14:14.462Z,118.30
2022-12-20T18:16:41.897Z,130.07
2022-12-20T18:19:17.902Z,123.35
2022-12-20T18:21:45.628Z,133.63
2022-12-20T18:24:15.319Z,123.15
2022-12-20T18:26:43.401Z,130.55
2022-12-20T18:29:11.158Z,121.82
2022-12-20T18:31:38.526Z,131.65
2022-12-20T18:34:05.592Z,138.93
2022-12-20T18:36:37.603Z,137.10
2022-12-20T18:39:08.080Z,137.52
2022-12-20T18:41:35.630Z,134.95
2022-12-20T18:44:04.980Z,132.15
2022-12-20T18:46:32.810Z,139.82
2022-12-20T18:49:00.956Z,138.23
2022-12-20T18:51:36.645Z,124.15
2022-12-20T18:54:05.747Z,129.65
2022-12-20T18:56:35.590Z,133.38
2022-12-20T18:59:10.283Z,136.65
2022-12-20T19:01:39.083Z,141.25
2022-12-20T19:04:07.536Z,139.40
2022-12-20T19:06:35.434Z,141.35
2022-12-20T19:09:05.661Z,133.32
2022-12-20T19:11:32.825Z,137.45
2022-12-20T19:14:00.139Z,140.70
2022-12-20T19:16:30.450Z,148.98
2022-12-20T19:18:58.639Z,150.73
2022-12-20T19:21:30.749Z,137.80
2022-12-20T19:23:59.981Z,148.23
2022-12-20T19:26:28.463Z,131.38
2022-12-20T19:28:56.125Z,143.77
2022-12-20T19:31:34.655Z,140.20
2022-12-20T19:34:04.164Z,129.00
2022-12-20T19:36:40.076Z,126.88
2022-12-20T19:39:13.282Z,115.32
2022-12-20T19:41:40.885Z,134.10
2022-12-20T19:44:08.939Z,128.68
2022-12-20T19:46:36.255Z,141.38
2022-12-20T19:49:03.632Z,132.82
2022-12-20T19:51:30.934Z,148.75
2022-12-20T19:53:59.176Z,137.10
2022-12-20T19:56:29.293Z,116.78
2022-12-20T19:58:56.695Z,123.23
2022-12-20T20:01:26.967Z,127.30
2022-12-20T20:03:59.324Z,125.10
2022-12-20T20:06:27.459Z,122.57
2022-12-20T20:08:57.796Z,126.88
2022-12-20T20:11:24.814Z,117.50
2022-12-20T20:13:52.069Z,125.53
2022-12-20T20:16:22.453Z,129.75
2022-12-20T20:18:50.227Z,120.13
2022-12-20T20:21:21.320Z,118.35
2022-12-20T20:23:52.752Z,134.07
2022-12-20T20:26:25.837Z,107.97
2022-12-20T20:28:53.336Z,121.20
2022-12-20T20:31:21.633Z,133.82
2022-12-20T20:33:49.443Z,124.18
2022-12-20T20:36:22.028Z,118.28
2022-12-20T20:38:50.596Z,114.82
2022-12-20T20:41:18.137Z,119.32
2022-12-20T20:43:45.314Z,113.80
2022-12-20T20:46:14.198Z,126.22
2022-12-20T20:48:42.890Z,106.72
2022-12-20T20:51:11.107Z,110.15
2022-12-20T20:53:39.393Z,105.50
2022-12-20T20:56:07.390Z,107.63
2022-12-20T20:58:35.310Z,91.20
2022-12-20T21:01:04.130Z,100.57
2022-12-20T21:03:32.054Z,94.13
2022-12-20T21:08:46.065Z,90.72
2022-12-20T21:11:13.324Z,95.13
2022-12-20T21:13:40.435Z,89.78
2022-12-20T21:16:20.355Z,91.50
2022-12-20T21:18:55.934Z,85.07
2022-12-20T21:21:24.590Z,87.75
2022-12-20T21:23:54.971Z,84.22
2022-12-20T21:26:23.710Z,86.15
2022-12-20T21:28:50.741Z,80.05
2022-12-20T21:31:19.502Z,84.45
2022-12-20T21:33:46.969Z,73.20
2022-12-20T21:36:16.194Z,82.10
2022-12-20T21:38:47.817Z,82.50
2022-12-20T21:41:14.907Z,79.50
2022-12-20T21:43:41.811Z,82.75
2022-12-20T21:46:11.908Z,78.53
2022-12-20T21:48:42.271Z,75.63
2022-12-20T21:51:11.896Z,72.72
2022-12-20T21:53:55.846Z,81.35
2022-12-20T21:56:24.251Z,70.72
2022-12-20T21:58:51.582Z,74.57
2022-12-20T22:01:21.518Z,65.85
2022-12-20T22:04:04.531Z,66.30
2022-12-20T22:06:32.291Z,65.28
2022-12-20T22:09:06.792Z,66.10
2022-12-20T22:11:34.756Z,64.88
2022-12-20T22:14:02.021Z,60.58
2022-12-20T22:16:31.893Z,55.65
2022-12-20T22:19:00.116Z,53.42
2022-12-20T22:21:29.805Z,57.05
2022-12-20T22:23:57.520Z,57.90
2022-12-20T22:26:27.223Z,65.78
2022-12-20T22:28:59.834Z,60.38
2022-12-20T22:31:27.529Z,60.67
2022-12-20T22:33:55.779Z,62.17
2022-12-20T22:36:23.215Z,59.10
2022-12-20T22:38:54.691Z,60.15
2022-12-20T22:41:29.253Z,63.80
2022-12-20T22:43:58.703Z,71.88
2022-12-20T22:46:26.148Z,65.82
2022-12-20T22:48:52.983Z,66.53
2022-12-20T22:51:22.667Z,69.28
2022-12-20T22:53:49.926Z,71.75
2022-12-20T22:56:18.827Z,72.50
2022-12-20T22:58:45.787Z,72.03
2022-12-20T23:01:15.328Z,81.63
2022-12-20T23:03:42.916Z,68.63
2022-12-20T23:06:13.398Z,68.03
2022-12-20T23:08:40.878Z,68.13
2022-12-20T23:11:44.254Z,74.75
2022-12-20T23:14:35.914Z,76.70
2022-12-20T23:17:04.186Z,70.15
2022-12-20T23:19:50.616Z,76.47
2022-12-20T23:22:37.582Z,77.65
2022-12-20T23:25:06.565Z,76.93
2022-12-20T23:27:33.517Z,71.38
2022-12-20T23:30:01.263Z,68.60
2022-12-20T23:32:29.151Z,76.50
2022-12-20T23:34:55.990Z,68.72
2022-12-20T23:37:23.467Z,72.43
2022-12-20T23:39:50.397Z,68.53
2022-12-20T23:42:17.230Z,72.35
2022-12-20T23:44:44.219Z,73.00
2022-12-20T23:47:15.632Z,73.35
2022-12-20T23:49:45.543Z,78.43
2022-12-20T23:52:12.380Z,75.93
2022-12-20T23:54:39.275Z,80.63
2022-12-20T23:57:06.233Z,81.18
2022-12-20T23:59:33.064Z,75.70
